Kezdőlap
METAR-TAF:

METAR-TAF

Repülőterek :

Cedar Rapids, Iowa, Amerikai Egyesült Államok

földrajzi szélesség: 41-53-04N, földrajzi hosszúság: 091-42-38W, magasság: 263 m

Jelenlegi meteorológiai megfigyelések

A jelentés 41 perccel ezelõtt készült, 13:52 UTC
Nyugati szél 6 kt
Hőmérséklet 27°C
Páratartalom 74%
Légköri nyomás 1018 hPa
Látótávolság: 14.5 km
Derült ég

METAR: KCID 281352Z 28006KT 9SM CLR 27/22 A3005 RMK AO2 SLP169 T02720217

Idő: 09:33 (14:33 UTC)

Előrejelzés

A jelentés 2 órával és 58 perccel ezelõtt készült, 11:35 UTC
Az előrejelzés 28-én 12 óra UTC és 29-én 12 óra UTC között érvényes
Délnyugati szél 3 kt
Látótávolság: 10 km
Szórványos felhőzet 5000 lábon
28-én 1700 órától UTC szerint
Délnyugati szél 9 kt
Látótávolság: 10 km
Kevés felhő 5000 lábon

TAF: KCID 281135Z 2812/2912 23003KT P6SM SCT050 FM281700 22009KT P6SM FEW050

Meteorológiai megfigyelések és előrejelzések több, mint 4000 repülőtéren (METAR és TAF jelentéseket).

A térképen piros és sárga pontok jelzik az elérhető meteorológiai állomásokat.

Mozgassa az egeret a pont fölött, hogy megjelenjen az állomás neve.

Azután kattintson az időjárási megfigyelések és előrejelzések megtekintéséhez.

A térkép megváltoztatása: kattintson a fekete keresztel jelölt zöld gombra ráközelítéshez, a vonallal jelölt zöld gombra távolításhoz, vagy a zöld nyilakra a szomszédos térképek eléréséhez.


METAR-TAF: